sensor_id;sensor_type;location;lat;lon;timestamp;temperature;humidity
60234;DHT22;49514;43.538;-5.708;2023-12-28T00:02:05;12.50;99.90
60234;DHT22;49514;43.538;-5.708;2023-12-28T00:04:32;12.50;99.90
60234;DHT22;49514;43.538;-5.708;2023-12-28T00:07:02;12.40;99.90
60234;DHT22;49514;43.538;-5.708;2023-12-28T00:09:29;12.40;99.90
60234;DHT22;49514;43.538;-5.708;2023-12-28T00:11:56;12.40;99.90
60234;DHT22;49514;43.538;-5.708;2023-12-28T00:14:24;12.40;99.90
60234;DHT22;49514;43.538;-5.708;2023-12-28T00:16:51;12.30;99.90
60234;DHT22;49514;43.538;-5.708;2023-12-28T00:19:17;12.40;99.90
60234;DHT22;49514;43.538;-5.708;2023-12-28T00:21:45;12.40;99.90
60234;DHT22;49514;43.538;-5.708;2023-12-28T00:24:12;12.40;99.90
60234;DHT22;49514;43.538;-5.708;2023-12-28T00:26:39;12.40;99.90
60234;DHT22;49514;43.538;-5.708;2023-12-28T00:29:06;12.40;99.90
60234;DHT22;49514;43.538;-5.708;2023-12-28T00:31:33;12.40;99.90
60234;DHT22;49514;43.538;-5.708;2023-12-28T00:34:00;12.40;99.90
60234;DHT22;49514;43.538;-5.708;2023-12-28T00:36:27;12.30;99.90
60234;DHT22;49514;43.538;-5.708;2023-12-28T00:38:54;12.30;99.90
60234;DHT22;49514;43.538;-5.708;2023-12-28T00:41:20;12.40;99.90
60234;DHT22;49514;43.538;-5.708;2023-12-28T00:43:48;12.40;99.90
60234;DHT22;49514;43.538;-5.708;2023-12-28T00:46:15;12.40;99.90
60234;DHT22;49514;43.538;-5.708;2023-12-28T00:48:42;12.40;99.90
60234;DHT22;49514;43.538;-5.708;2023-12-28T00:51:08;12.40;99.90
60234;DHT22;49514;43.538;-5.708;2023-12-28T00:53:35;12.30;99.90
60234;DHT22;49514;43.538;-5.708;2023-12-28T00:56:02;12.30;99.90
60234;DHT22;49514;43.538;-5.708;2023-12-28T00:58:28;12.30;99.90
60234;DHT22;49514;43.538;-5.708;2023-12-28T01:00:55;12.30;99.90
60234;DHT22;49514;43.538;-5.708;2023-12-28T01:03:23;12.20;99.90
60234;DHT22;49514;43.538;-5.708;2023-12-28T01:05:50;12.20;99.90
60234;DHT22;49514;43.538;-5.708;2023-12-28T01:08:18;12.20;99.90
60234;DHT22;49514;43.538;-5.708;2023-12-28T01:10:45;12.20;99.90
60234;DHT22;49514;43.538;-5.708;2023-12-28T01:13:12;12.10;99.90
60234;DHT22;49514;43.538;-5.708;2023-12-28T01:15:38;12.10;99.90
60234;DHT22;49514;43.538;-5.708;2023-12-28T01:18:05;12.10;99.90
60234;DHT22;49514;43.538;-5.708;2023-12-28T01:20:32;12.10;99.90
60234;DHT22;49514;43.538;-5.708;2023-12-28T01:23:01;12.10;99.90
60234;DHT22;49514;43.538;-5.708;2023-12-28T01:25:28;12.10;99.90
60234;DHT22;49514;43.538;-5.708;2023-12-28T01:27:55;12.10;99.90
60234;DHT22;49514;43.538;-5.708;2023-12-28T01:30:21;12.00;99.90
60234;DHT22;49514;43.538;-5.708;2023-12-28T01:32:48;12.10;99.90
60234;DHT22;49514;43.538;-5.708;2023-12-28T01:35:14;12.10;99.90
60234;DHT22;49514;43.538;-5.708;2023-12-28T01:37:41;12.10;99.90
60234;DHT22;49514;43.538;-5.708;2023-12-28T01:40:08;12.10;99.90
60234;DHT22;49514;43.538;-5.708;2023-12-28T01:42:35;12.10;99.90
60234;DHT22;49514;43.538;-5.708;2023-12-28T01:45:03;12.10;99.90
60234;DHT22;49514;43.538;-5.708;2023-12-28T01:47:30;12.00;99.90
60234;DHT22;49514;43.538;-5.708;2023-12-28T01:49:58;12.10;99.90
60234;DHT22;49514;43.538;-5.708;2023-12-28T01:52:26;12.10;99.90
60234;DHT22;49514;43.538;-5.708;2023-12-28T01:54:55;12.10;99.90
60234;DHT22;49514;43.538;-5.708;2023-12-28T01:57:21;12.10;99.90
60234;DHT22;49514;43.538;-5.708;2023-12-28T01:59:48;12.10;99.90
60234;DHT22;49514;43.538;-5.708;2023-12-28T02:02:16;12.10;99.90
60234;DHT22;49514;43.538;-5.708;2023-12-28T02:04:43;12.10;99.90
60234;DHT22;49514;43.538;-5.708;2023-12-28T02:07:11;12.10;99.90
60234;DHT22;49514;43.538;-5.708;2023-12-28T02:09:40;12.10;99.90
60234;DHT22;49514;43.538;-5.708;2023-12-28T02:12:06;12.10;99.90
60234;DHT22;49514;43.538;-5.708;2023-12-28T02:14:33;12.10;99.90
60234;DHT22;49514;43.538;-5.708;2023-12-28T02:17:10;12.10;99.90
60234;DHT22;49514;43.538;-5.708;2023-12-28T02:19:55;12.10;99.90
60234;DHT22;49514;43.538;-5.708;2023-12-28T02:22:26;12.10;99.90
60234;DHT22;49514;43.538;-5.708;2023-12-28T02:27:24;12.20;99.90
60234;DHT22;49514;43.538;-5.708;2023-12-28T02:29:55;12.20;99.90
60234;DHT22;49514;43.538;-5.708;2023-12-28T02:32:26;12.20;99.90
60234;DHT22;49514;43.538;-5.708;2023-12-28T02:34:59;12.20;99.90
60234;DHT22;49514;43.538;-5.708;2023-12-28T02:37:28;12.20;99.90
60234;DHT22;49514;43.538;-5.708;2023-12-28T02:39:57;12.30;99.90
60234;DHT22;49514;43.538;-5.708;2023-12-28T02:42:23;12.30;99.90
60234;DHT22;49514;43.538;-5.708;2023-12-28T02:44:51;12.30;99.90
60234;DHT22;49514;43.538;-5.708;2023-12-28T02:47:18;12.30;99.90
60234;DHT22;49514;43.538;-5.708;2023-12-28T02:49:45;12.30;99.90
60234;DHT22;49514;43.538;-5.708;2023-12-28T02:52:11;12.40;99.90
60234;DHT22;49514;43.538;-5.708;2023-12-28T02:54:38;12.40;99.90
60234;DHT22;49514;43.538;-5.708;2023-12-28T02:57:04;12.40;99.90
60234;DHT22;49514;43.538;-5.708;2023-12-28T02:59:31;12.40;99.90
60234;DHT22;49514;43.538;-5.708;2023-12-28T03:01:57;12.40;99.90
60234;DHT22;49514;43.538;-5.708;2023-12-28T03:04:24;12.40;99.90
60234;DHT22;49514;43.538;-5.708;2023-12-28T03:06:52;12.40;99.90
60234;DHT22;49514;43.538;-5.708;2023-12-28T03:09:18;12.40;99.90
60234;DHT22;49514;43.538;-5.708;2023-12-28T03:11:45;12.40;99.90
60234;DHT22;49514;43.538;-5.708;2023-12-28T03:14:11;12.40;99.90
60234;DHT22;49514;43.538;-5.708;2023-12-28T03:16:38;12.40;99.90
60234;DHT22;49514;43.538;-5.708;2023-12-28T03:19:04;12.40;99.90
60234;DHT22;49514;43.538;-5.708;2023-12-28T03:21:31;12.40;99.90
60234;DHT22;49514;43.538;-5.708;2023-12-28T03:23:58;12.30;99.90
60234;DHT22;49514;43.538;-5.708;2023-12-28T03:26:24;12.40;99.90
60234;DHT22;49514;43.538;-5.708;2023-12-28T03:28:51;12.30;99.90
60234;DHT22;49514;43.538;-5.708;2023-12-28T03:31:17;12.30;99.90
60234;DHT22;49514;43.538;-5.708;2023-12-28T03:33:44;12.30;99.90
60234;DHT22;49514;43.538;-5.708;2023-12-28T03:36:20;12.30;99.90
60234;DHT22;49514;43.538;-5.708;2023-12-28T03:38:47;12.30;99.90
60234;DHT22;49514;43.538;-5.708;2023-12-28T03:41:18;12.30;99.90
60234;DHT22;49514;43.538;-5.708;2023-12-28T03:43:46;12.30;99.90
60234;DHT22;49514;43.538;-5.708;2023-12-28T03:46:13;12.30;99.90
60234;DHT22;49514;43.538;-5.708;2023-12-28T03:48:40;12.30;99.90
60234;DHT22;49514;43.538;-5.708;2023-12-28T03:51:07;12.20;99.90
60234;DHT22;49514;43.538;-5.708;2023-12-28T03:53:33;12.20;99.90
60234;DHT22;49514;43.538;-5.708;2023-12-28T03:56:01;12.20;99.90
60234;DHT22;49514;43.538;-5.708;2023-12-28T03:58:27;12.20;99.90
60234;DHT22;49514;43.538;-5.708;2023-12-28T04:00:54;12.20;99.90
60234;DHT22;49514;43.538;-5.708;2023-12-28T04:03:20;12.10;99.90
60234;DHT22;49514;43.538;-5.708;2023-12-28T04:05:47;12.20;99.90
60234;DHT22;49514;43.538;-5.708;2023-12-28T04:08:14;12.20;99.90
60234;DHT22;49514;43.538;-5.708;2023-12-28T04:10:40;12.20;99.90
60234;DHT22;49514;43.538;-5.708;2023-12-28T04:13:07;12.20;99.90
60234;DHT22;49514;43.538;-5.708;2023-12-28T04:15:34;12.20;99.90
60234;DHT22;49514;43.538;-5.708;2023-12-28T04:18:01;12.20;99.90
60234;DHT22;49514;43.538;-5.708;2023-12-28T04:20:28;12.20;99.90
60234;DHT22;49514;43.538;-5.708;2023-12-28T04:22:55;12.10;99.90
60234;DHT22;49514;43.538;-5.708;2023-12-28T04:25:21;12.10;99.90
60234;DHT22;49514;43.538;-5.708;2023-12-28T04:27:48;12.10;99.90
60234;DHT22;49514;43.538;-5.708;2023-12-28T04:30:15;12.10;99.90
60234;DHT22;49514;43.538;-5.708;2023-12-28T04:32:43;12.20;99.90
60234;DHT22;49514;43.538;-5.708;2023-12-28T04:35:09;12.20;99.90
60234;DHT22;49514;43.538;-5.708;2023-12-28T04:37:36;12.10;99.90
60234;DHT22;49514;43.538;-5.708;2023-12-28T04:40:03;12.10;99.90
60234;DHT22;49514;43.538;-5.708;2023-12-28T04:42:30;12.10;99.90
60234;DHT22;49514;43.538;-5.708;2023-12-28T04:44:57;12.10;99.90
60234;DHT22;49514;43.538;-5.708;2023-12-28T04:47:23;12.10;99.90
60234;DHT22;49514;43.538;-5.708;2023-12-28T04:49:50;12.10;99.90
60234;DHT22;49514;43.538;-5.708;2023-12-28T04:52:16;12.10;99.90
60234;DHT22;49514;43.538;-5.708;2023-12-28T04:54:44;12.20;99.90
60234;DHT22;49514;43.538;-5.708;2023-12-28T04:57:10;12.10;99.90
60234;DHT22;49514;43.538;-5.708;2023-12-28T04:59:41;12.10;99.90
60234;DHT22;49514;43.538;-5.708;2023-12-28T05:02:09;12.10;99.90
60234;DHT22;49514;43.538;-5.708;2023-12-28T05:04:39;12.10;99.90
60234;DHT22;49514;43.538;-5.708;2023-12-28T05:07:05;12.10;99.90
60234;DHT22;49514;43.538;-5.708;2023-12-28T05:09:32;12.10;99.90
60234;DHT22;49514;43.538;-5.708;2023-12-28T05:11:59;12.10;99.90
60234;DHT22;49514;43.538;-5.708;2023-12-28T05:14:26;12.00;99.90
60234;DHT22;49514;43.538;-5.708;2023-12-28T05:16:52;12.00;99.90
60234;DHT22;49514;43.538;-5.708;2023-12-28T05:19:19;12.00;99.90
60234;DHT22;49514;43.538;-5.708;2023-12-28T05:21:45;11.90;99.90
60234;DHT22;49514;43.538;-5.708;2023-12-28T05:24:13;11.90;99.90
60234;DHT22;49514;43.538;-5.708;2023-12-28T05:26:40;11.80;99.90
60234;DHT22;49514;43.538;-5.708;2023-12-28T05:29:06;11.80;99.90
60234;DHT22;49514;43.538;-5.708;2023-12-28T05:31:33;11.80;99.90
60234;DHT22;49514;43.538;-5.708;2023-12-28T05:33:59;11.80;99.90
60234;DHT22;49514;43.538;-5.708;2023-12-28T05:36:26;11.70;99.90
60234;DHT22;49514;43.538;-5.708;2023-12-28T05:38:52;11.70;99.90
60234;DHT22;49514;43.538;-5.708;2023-12-28T05:41:19;11.70;99.90
60234;DHT22;49514;43.538;-5.708;2023-12-28T05:43:46;11.70;99.90
60234;DHT22;49514;43.538;-5.708;2023-12-28T05:46:13;11.70;99.90
60234;DHT22;49514;43.538;-5.708;2023-12-28T05:48:40;11.70;99.90
60234;DHT22;49514;43.538;-5.708;2023-12-28T05:51:06;11.70;99.90
60234;DHT22;49514;43.538;-5.708;2023-12-28T05:53:33;11.70;99.90
60234;DHT22;49514;43.538;-5.708;2023-12-28T05:56:00;11.70;99.90
60234;DHT22;49514;43.538;-5.708;2023-12-28T05:58:29;11.70;99.90
60234;DHT22;49514;43.538;-5.708;2023-12-28T06:00:56;11.70;99.90
60234;DHT22;49514;43.538;-5.708;2023-12-28T06:03:22;11.70;99.90
60234;DHT22;49514;43.538;-5.708;2023-12-28T06:05:54;11.70;99.90
60234;DHT22;49514;43.538;-5.708;2023-12-28T06:08:21;11.70;99.90
60234;DHT22;49514;43.538;-5.708;2023-12-28T06:10:48;11.70;99.90
60234;DHT22;49514;43.538;-5.708;2023-12-28T06:13:15;11.80;99.90
60234;DHT22;49514;43.538;-5.708;2023-12-28T06:15:41;11.80;99.90
60234;DHT22;49514;43.538;-5.708;2023-12-28T06:18:08;11.80;99.90
60234;DHT22;49514;43.538;-5.708;2023-12-28T06:20:35;11.80;99.90
60234;DHT22;49514;43.538;-5.708;2023-12-28T06:23:02;11.80;99.90
60234;DHT22;49514;43.538;-5.708;2023-12-28T06:25:29;11.80;99.90
60234;DHT22;49514;43.538;-5.708;2023-12-28T06:27:55;11.80;99.90
60234;DHT22;49514;43.538;-5.708;2023-12-28T06:30:22;11.80;99.90
60234;DHT22;49514;43.538;-5.708;2023-12-28T06:32:48;11.80;99.90
60234;DHT22;49514;43.538;-5.708;2023-12-28T06:35:15;11.80;99.90
60234;DHT22;49514;43.538;-5.708;2023-12-28T06:37:42;11.80;99.90
60234;DHT22;49514;43.538;-5.708;2023-12-28T06:40:10;11.70;99.90
60234;DHT22;49514;43.538;-5.708;2023-12-28T06:42:36;11.80;99.90
60234;DHT22;49514;43.538;-5.708;2023-12-28T06:45:03;11.70;99.90
60234;DHT22;49514;43.538;-5.708;2023-12-28T06:47:30;11.70;99.90
60234;DHT22;49514;43.538;-5.708;2023-12-28T06:49:57;11.70;99.90
60234;DHT22;49514;43.538;-5.708;2023-12-28T06:52:23;11.70;99.90
60234;DHT22;49514;43.538;-5.708;2023-12-28T06:54:53;11.70;99.90
60234;DHT22;49514;43.538;-5.708;2023-12-28T06:57:20;11.70;99.90
60234;DHT22;49514;43.538;-5.708;2023-12-28T06:59:46;11.70;99.90
60234;DHT22;49514;43.538;-5.708;2023-12-28T07:02:13;11.70;99.90
60234;DHT22;49514;43.538;-5.708;2023-12-28T07:04:39;11.70;99.90
60234;DHT22;49514;43.538;-5.708;2023-12-28T07:07:06;11.70;99.90
60234;DHT22;49514;43.538;-5.708;2023-12-28T07:09:33;11.70;99.90
60234;DHT22;49514;43.538;-5.708;2023-12-28T07:11:59;11.70;99.90
60234;DHT22;49514;43.538;-5.708;2023-12-28T07:14:26;11.60;99.90
60234;DHT22;49514;43.538;-5.708;2023-12-28T07:16:52;11.70;99.90
60234;DHT22;49514;43.538;-5.708;2023-12-28T07:19:19;11.70;99.90
60234;DHT22;49514;43.538;-5.708;2023-12-28T07:21:45;11.70;99.90
60234;DHT22;49514;43.538;-5.708;2023-12-28T07:24:12;11.80;99.90
60234;DHT22;49514;43.538;-5.708;2023-12-28T07:26:39;11.80;99.90
60234;DHT22;49514;43.538;-5.708;2023-12-28T07:29:05;11.90;99.90
60234;DHT22;49514;43.538;-5.708;2023-12-28T07:31:32;11.90;99.90
60234;DHT22;49514;43.538;-5.708;2023-12-28T07:33:58;11.90;99.90
60234;DHT22;49514;43.538;-5.708;2023-12-28T07:36:25;11.90;99.90
60234;DHT22;49514;43.538;-5.708;2023-12-28T07:38:52;11.90;99.90
60234;DHT22;49514;43.538;-5.708;2023-12-28T07:41:18;11.90;99.90
60234;DHT22;49514;43.538;-5.708;2023-12-28T07:43:45;11.90;99.90
60234;DHT22;49514;43.538;-5.708;2023-12-28T07:46:12;11.90;99.90
60234;DHT22;49514;43.538;-5.708;2023-12-28T07:48:39;11.90;99.90
60234;DHT22;49514;43.538;-5.708;2023-12-28T07:51:06;11.90;99.90
60234;DHT22;49514;43.538;-5.708;2023-12-28T07:53:33;11.90;99.90
60234;DHT22;49514;43.538;-5.708;2023-12-28T07:56:00;11.80;99.90
60234;DHT22;49514;43.538;-5.708;2023-12-28T07:58:26;11.80;99.90
60234;DHT22;49514;43.538;-5.708;2023-12-28T08:00:53;11.90;99.90
60234;DHT22;49514;43.538;-5.708;2023-12-28T08:03:20;11.90;99.90
60234;DHT22;49514;43.538;-5.708;2023-12-28T08:05:46;11.80;99.90
60234;DHT22;49514;43.538;-5.708;2023-12-28T08:08:13;11.80;99.90
60234;DHT22;49514;43.538;-5.708;2023-12-28T08:10:40;11.80;99.90
60234;DHT22;49514;43.538;-5.708;2023-12-28T08:13:06;11.80;99.90
60234;DHT22;49514;43.538;-5.708;2023-12-28T08:15:33;11.90;99.90
60234;DHT22;49514;43.538;-5.708;2023-12-28T08:18:00;11.90;99.90
60234;DHT22;49514;43.538;-5.708;2023-12-28T08:20:29;11.80;99.90
60234;DHT22;49514;43.538;-5.708;2023-12-28T08:22:55;11.80;99.90
60234;DHT22;49514;43.538;-5.708;2023-12-28T08:25:24;11.90;99.90
60234;DHT22;49514;43.538;-5.708;2023-12-28T08:27:51;11.90;99.90
60234;DHT22;49514;43.538;-5.708;2023-12-28T08:30:17;11.90;99.90
60234;DHT22;49514;43.538;-5.708;2023-12-28T08:32:44;11.90;99.90
60234;DHT22;49514;43.538;-5.708;2023-12-28T08:35:11;11.90;99.90
60234;DHT22;49514;43.538;-5.708;2023-12-28T08:37:38;11.90;99.90
60234;DHT22;49514;43.538;-5.708;2023-12-28T08:40:05;11.90;99.90
60234;DHT22;49514;43.538;-5.708;2023-12-28T08:42:31;11.90;99.90
60234;DHT22;49514;43.538;-5.708;2023-12-28T08:44:58;11.90;99.90
60234;DHT22;49514;43.538;-5.708;2023-12-28T08:47:25;12.00;99.90
60234;DHT22;49514;43.538;-5.708;2023-12-28T08:49:51;12.00;99.90
60234;DHT22;49514;43.538;-5.708;2023-12-28T08:52:18;12.00;99.90
60234;DHT22;49514;43.538;-5.708;2023-12-28T08:54:45;12.00;99.90
60234;DHT22;49514;43.538;-5.708;2023-12-28T08:57:11;12.10;99.90
60234;DHT22;49514;43.538;-5.708;2023-12-28T08:59:39;12.10;99.90
60234;DHT22;49514;43.538;-5.708;2023-12-28T09:02:06;12.10;99.90
60234;DHT22;49514;43.538;-5.708;2023-12-28T09:04:33;12.20;99.90
60234;DHT22;49514;43.538;-5.708;2023-12-28T09:07:00;12.20;99.90
60234;DHT22;49514;43.538;-5.708;2023-12-28T09:09:27;12.20;99.90
60234;DHT22;49514;43.538;-5.708;2023-12-28T09:11:54;12.20;99.90
60234;DHT22;49514;43.538;-5.708;2023-12-28T09:14:20;12.20;99.90
60234;DHT22;49514;43.538;-5.708;2023-12-28T09:16:47;12.20;99.90
60234;DHT22;49514;43.538;-5.708;2023-12-28T09:19:14;12.30;99.90
60234;DHT22;49514;43.538;-5.708;2023-12-28T09:21:41;12.30;99.90
60234;DHT22;49514;43.538;-5.708;2023-12-28T09:24:07;12.30;99.90
60234;DHT22;49514;43.538;-5.708;2023-12-28T09:26:34;12.40;99.90
60234;DHT22;49514;43.538;-5.708;2023-12-28T09:29:01;12.40;99.90
60234;DHT22;49514;43.538;-5.708;2023-12-28T09:31:28;12.40;99.90
60234;DHT22;49514;43.538;-5.708;2023-12-28T09:33:55;12.50;99.90
60234;DHT22;49514;43.538;-5.708;2023-12-28T09:36:21;12.50;99.90
60234;DHT22;49514;43.538;-5.708;2023-12-28T09:38:48;12.50;99.90
60234;DHT22;49514;43.538;-5.708;2023-12-28T09:41:15;12.50;99.90
60234;DHT22;49514;43.538;-5.708;2023-12-28T09:43:53;12.50;99.90
60234;DHT22;49514;43.538;-5.708;2023-12-28T09:46:21;12.50;99.90
60234;DHT22;49514;43.538;-5.708;2023-12-28T09:48:48;12.50;99.90
60234;DHT22;49514;43.538;-5.708;2023-12-28T09:51:16;12.60;99.90
60234;DHT22;49514;43.538;-5.708;2023-12-28T09:53:44;12.60;99.90
60234;DHT22;49514;43.538;-5.708;2023-12-28T09:56:13;12.60;99.90
60234;DHT22;49514;43.538;-5.708;2023-12-28T09:58:40;12.60;99.90
60234;DHT22;49514;43.538;-5.708;2023-12-28T10:01:10;12.70;99.90
60234;DHT22;49514;43.538;-5.708;2023-12-28T10:03:37;12.90;99.90
60234;DHT22;49514;43.538;-5.708;2023-12-28T10:06:04;13.00;99.90
60234;DHT22;49514;43.538;-5.708;2023-12-28T10:08:30;13.00;99.90
60234;DHT22;49514;43.538;-5.708;2023-12-28T10:10:57;13.00;99.90
60234;DHT22;49514;43.538;-5.708;2023-12-28T10:13:25;13.10;99.90
60234;DHT22;49514;43.538;-5.708;2023-12-28T10:15:52;13.10;99.90
60234;DHT22;49514;43.538;-5.708;2023-12-28T10:18:18;13.10;99.90
60234;DHT22;49514;43.538;-5.708;2023-12-28T10:20:52;13.10;99.90
60234;DHT22;49514;43.538;-5.708;2023-12-28T10:23:19;13.10;99.90
60234;DHT22;49514;43.538;-5.708;2023-12-28T10:25:47;13.10;99.90
60234;DHT22;49514;43.538;-5.708;2023-12-28T10:28:16;13.10;99.90
60234;DHT22;49514;43.538;-5.708;2023-12-28T10:30:45;13.10;99.90
60234;DHT22;49514;43.538;-5.708;2023-12-28T10:33:14;13.20;99.90
60234;DHT22;49514;43.538;-5.708;2023-12-28T10:35:43;13.20;99.90
60234;DHT22;49514;43.538;-5.708;2023-12-28T10:38:14;13.20;99.90
60234;DHT22;49514;43.538;-5.708;2023-12-28T10:40:46;13.30;99.90
60234;DHT22;49514;43.538;-5.708;2023-12-28T10:43:16;13.40;99.90
60234;DHT22;49514;43.538;-5.708;2023-12-28T10:45:46;13.40;99.90
60234;DHT22;49514;43.538;-5.708;2023-12-28T10:48:13;13.50;99.90
60234;DHT22;49514;43.538;-5.708;2023-12-28T10:50:47;13.60;99.90
60234;DHT22;49514;43.538;-5.708;2023-12-28T10:53:38;13.60;99.90
60234;DHT22;49514;43.538;-5.708;2023-12-28T10:58:48;13.70;99.90
60234;DHT22;49514;43.538;-5.708;2023-12-28T11:01:24;13.80;99.90
60234;DHT22;49514;43.538;-5.708;2023-12-28T11:04:31;13.80;99.90
60234;DHT22;49514;43.538;-5.708;2023-12-28T11:06:51;13.90;99.90
60234;DHT22;49514;43.538;-5.708;2023-12-28T11:09:20;14.00;99.90
60234;DHT22;49514;43.538;-5.708;2023-12-28T11:11:50;14.00;99.90
60234;DHT22;49514;43.538;-5.708;2023-12-28T11:14:21;14.00;99.90
60234;DHT22;49514;43.538;-5.708;2023-12-28T11:16:48;14.00;99.90
60234;DHT22;49514;43.538;-5.708;2023-12-28T11:19:15;14.00;99.90
60234;DHT22;49514;43.538;-5.708;2023-12-28T11:21:43;14.00;99.90
60234;DHT22;49514;43.538;-5.708;2023-12-28T11:24:10;14.10;99.90
60234;DHT22;49514;43.538;-5.708;2023-12-28T11:26:38;14.20;99.90
60234;DHT22;49514;43.538;-5.708;2023-12-28T11:29:05;14.20;99.90
60234;DHT22;49514;43.538;-5.708;2023-12-28T11:31:33;14.20;99.90
60234;DHT22;49514;43.538;-5.708;2023-12-28T11:34:06;14.20;99.90
60234;DHT22;49514;43.538;-5.708;2023-12-28T11:36:44;14.10;99.90
60234;DHT22;49514;43.538;-5.708;2023-12-28T11:39:13;14.00;99.90
60234;DHT22;49514;43.538;-5.708;2023-12-28T11:41:46;14.00;99.90
60234;DHT22;49514;43.538;-5.708;2023-12-28T11:44:13;13.90;99.90
60234;DHT22;49514;43.538;-5.708;2023-12-28T11:46:40;13.90;99.90
60234;DHT22;49514;43.538;-5.708;2023-12-28T11:49:07;13.90;99.90
60234;DHT22;49514;43.538;-5.708;2023-12-28T11:51:36;13.90;99.90
60234;DHT22;49514;43.538;-5.708;2023-12-28T11:54:04;13.90;99.90
60234;DHT22;49514;43.538;-5.708;2023-12-28T11:56:31;13.80;99.90
60234;DHT22;49514;43.538;-5.708;2023-12-28T11:58:59;13.80;99.90
60234;DHT22;49514;43.538;-5.708;2023-12-28T12:01:26;13.80;99.90
60234;DHT22;49514;43.538;-5.708;2023-12-28T12:03:53;13.80;99.90
60234;DHT22;49514;43.538;-5.708;2023-12-28T12:06:20;13.80;99.90
60234;DHT22;49514;43.538;-5.708;2023-12-28T12:08:47;13.80;99.90
60234;DHT22;49514;43.538;-5.708;2023-12-28T12:11:14;13.90;99.90
60234;DHT22;49514;43.538;-5.708;2023-12-28T12:13:42;13.90;99.90
60234;DHT22;49514;43.538;-5.708;2023-12-28T12:16:09;13.90;99.90
60234;DHT22;49514;43.538;-5.708;2023-12-28T12:18:36;13.90;99.90
60234;DHT22;49514;43.538;-5.708;2023-12-28T12:21:03;14.00;99.90
60234;DHT22;49514;43.538;-5.708;2023-12-28T12:23:30;14.00;99.90
60234;DHT22;49514;43.538;-5.708;2023-12-28T12:25:57;14.10;99.90
60234;DHT22;49514;43.538;-5.708;2023-12-28T12:28:25;14.20;99.90
60234;DHT22;49514;43.538;-5.708;2023-12-28T12:30:54;14.30;99.90
60234;DHT22;49514;43.538;-5.708;2023-12-28T12:33:26;14.30;99.90
60234;DHT22;49514;43.538;-5.708;2023-12-28T12:35:53;14.40;99.90
60234;DHT22;49514;43.538;-5.708;2023-12-28T12:38:20;14.40;99.90
60234;DHT22;49514;43.538;-5.708;2023-12-28T12:40:51;14.50;99.90
60234;DHT22;49514;43.538;-5.708;2023-12-28T12:43:18;14.60;99.90
60234;DHT22;49514;43.538;-5.708;2023-12-28T12:45:46;14.60;99.90
60234;DHT22;49514;43.538;-5.708;2023-12-28T12:48:13;14.70;99.90
60234;DHT22;49514;43.538;-5.708;2023-12-28T12:50:39;14.80;99.90
60234;DHT22;49514;43.538;-5.708;2023-12-28T12:53:06;14.90;99.90
60234;DHT22;49514;43.538;-5.708;2023-12-28T12:55:33;15.20;99.90
60234;DHT22;49514;43.538;-5.708;2023-12-28T12:58:03;15.90;99.90
60234;DHT22;49514;43.538;-5.708;2023-12-28T13:00:29;17.10;99.90
60234;DHT22;49514;43.538;-5.708;2023-12-28T13:03:03;21.00;99.90
60234;DHT22;49514;43.538;-5.708;2023-12-28T13:05:30;21.00;99.90
60234;DHT22;49514;43.538;-5.708;2023-12-28T13:07:57;22.20;99.90
60234;DHT22;49514;43.538;-5.708;2023-12-28T13:10:23;24.30;99.90
60234;DHT22;49514;43.538;-5.708;2023-12-28T13:15:19;27.30;99.90
60234;DHT22;49514;43.538;-5.708;2023-12-28T13:17:46;27.40;99.90
60234;DHT22;49514;43.538;-5.708;2023-12-28T13:20:13;26.70;99.90
60234;DHT22;49514;43.538;-5.708;2023-12-28T13:22:40;25.80;99.90
60234;DHT22;49514;43.538;-5.708;2023-12-28T13:25:07;24.90;99.90
60234;DHT22;49514;43.538;-5.708;2023-12-28T13:27:33;24.30;99.90
60234;DHT22;49514;43.538;-5.708;2023-12-28T13:30:00;23.50;99.90
60234;DHT22;49514;43.538;-5.708;2023-12-28T13:32:26;22.80;99.90
60234;DHT22;49514;43.538;-5.708;2023-12-28T13:34:53;21.80;99.90
60234;DHT22;49514;43.538;-5.708;2023-12-28T13:37:19;21.00;99.90
60234;DHT22;49514;43.538;-5.708;2023-12-28T13:39:46;20.20;99.90
60234;DHT22;49514;43.538;-5.708;2023-12-28T13:42:13;19.80;99.90
60234;DHT22;49514;43.538;-5.708;2023-12-28T13:44:39;19.30;99.90
60234;DHT22;49514;43.538;-5.708;2023-12-28T13:47:06;18.90;99.90
60234;DHT22;49514;43.538;-5.708;2023-12-28T13:49:32;18.60;99.90
60234;DHT22;49514;43.538;-5.708;2023-12-28T13:51:59;18.40;99.90
60234;DHT22;49514;43.538;-5.708;2023-12-28T13:54:26;18.30;99.90
60234;DHT22;49514;43.538;-5.708;2023-12-28T13:56:52;18.20;99.90
60234;DHT22;49514;43.538;-5.708;2023-12-28T13:59:25;18.00;99.90
60234;DHT22;49514;43.538;-5.708;2023-12-28T14:01:51;17.80;99.90
60234;DHT22;49514;43.538;-5.708;2023-12-28T14:04:18;17.70;99.90
60234;DHT22;49514;43.538;-5.708;2023-12-28T14:06:45;17.60;99.90
60234;DHT22;49514;43.538;-5.708;2023-12-28T14:09:11;17.50;99.90
60234;DHT22;49514;43.538;-5.708;2023-12-28T14:11:38;17.30;99.90
60234;DHT22;49514;43.538;-5.708;2023-12-28T14:14:05;17.20;99.90
60234;DHT22;49514;43.538;-5.708;2023-12-28T14:16:32;17.00;99.90
60234;DHT22;49514;43.538;-5.708;2023-12-28T14:18:59;16.80;99.90
60234;DHT22;49514;43.538;-5.708;2023-12-28T14:21:26;16.80;99.90
60234;DHT22;49514;43.538;-5.708;2023-12-28T14:23:53;16.70;99.90
60234;DHT22;49514;43.538;-5.708;2023-12-28T14:26:21;16.70;99.90
60234;DHT22;49514;43.538;-5.708;2023-12-28T14:28:49;16.70;99.90
60234;DHT22;49514;43.538;-5.708;2023-12-28T14:31:16;16.50;99.90
60234;DHT22;49514;43.538;-5.708;2023-12-28T14:33:43;16.50;99.90
60234;DHT22;49514;43.538;-5.708;2023-12-28T14:38:52;16.20;99.90
60234;DHT22;49514;43.538;-5.708;2023-12-28T14:41:19;16.00;99.90
60234;DHT22;49514;43.538;-5.708;2023-12-28T14:43:45;15.90;99.90
60234;DHT22;49514;43.538;-5.708;2023-12-28T14:46:12;15.80;99.90
60234;DHT22;49514;43.538;-5.708;2023-12-28T14:48:39;15.70;99.90
60234;DHT22;49514;43.538;-5.708;2023-12-28T14:51:07;15.80;99.90
60234;DHT22;49514;43.538;-5.708;2023-12-28T14:53:34;15.70;99.90
60234;DHT22;49514;43.538;-5.708;2023-12-28T14:56:01;15.70;99.90
60234;DHT22;49514;43.538;-5.708;2023-12-28T14:58:27;15.60;99.90
60234;DHT22;49514;43.538;-5.708;2023-12-28T15:00:56;15.70;99.90
60234;DHT22;49514;43.538;-5.708;2023-12-28T15:03:23;15.60;99.90
60234;DHT22;49514;43.538;-5.708;2023-12-28T15:05:51;15.50;99.90
60234;DHT22;49514;43.538;-5.708;2023-12-28T15:08:17;15.50;99.90
60234;DHT22;49514;43.538;-5.708;2023-12-28T15:10:45;15.50;99.90
60234;DHT22;49514;43.538;-5.708;2023-12-28T15:13:12;15.50;99.90
60234;DHT22;49514;43.538;-5.708;2023-12-28T15:15:39;15.60;99.90
60234;DHT22;49514;43.538;-5.708;2023-12-28T15:18:06;15.60;99.90
60234;DHT22;49514;43.538;-5.708;2023-12-28T15:20:34;15.50;99.90
60234;DHT22;49514;43.538;-5.708;2023-12-28T15:23:01;15.50;99.90
60234;DHT22;49514;43.538;-5.708;2023-12-28T15:25:28;15.40;99.90
60234;DHT22;49514;43.538;-5.708;2023-12-28T15:27:55;15.40;99.90